Flight Track Log - Related Links

Times and Time Zones

All times are in EDT time to prevent confusion due to time zone crossing. See the UAL5915 flight status page for this flight to view local times or setup timezone preferences in your user account.

Time Position Orientation Groundspeed Altitude Reporting Facility
EDT Latitude Longitude Course Direction KTS MPH feet Rate Location/Type
Fri 02:40:13 PM 36.1956 -95.8686 92° East 151 174 1,300  Level Kansas City Center
Fri 02:41:26 PM 36.1933 -95.7911 92° East 205 236 4,200 2,081 Climbing Kansas City Center
Fri 02:42:17 PM 36.1792 -95.7228 104° East 244 281 5,600 2,091 Climbing Kansas City Center
Fri 02:42:32 PM 36.1717 -95.6878 105° East 296 341 6,500 3,344 Climbing Kansas City Center
Fri 02:43:18 PM 36.1581 -95.6283 106° East 280 322 9,000 2,807 Climbing Kansas City Center
Fri 02:44:21 PM 36.1375 -95.5344 105° East 284 327 11,600 2,468 Climbing Kansas City Center
Fri 02:45:22 PM 36.1111 -95.4064 104° East 323 372 14,100 2,164 Climbing Kansas City Center
Fri 02:46:23 PM 36.0878 -95.2981 105° East 340 391 16,000 1,728 Climbing Kansas City Center
Fri 02:47:27 PM 36.0589 -95.1703 106° East 363 418 17,700 1,597 Climbing Kansas City Center
Fri 02:48:27 PM 36.0297 -95.0375 105° East 394 453 19,300 1,525 Climbing Kansas City Center
Fri 02:49:29 PM 36.0244 -94.8919 93° East 419 482 20,800 1,476 Climbing Kansas City Center
Fri 02:50:33 PM 36.0306 -94.7394 87° East 439 505 22,400 1,790 Climbing Kansas City Center
Fri 02:51:33 PM 36.0358 -94.5589 88° East 441 507 24,500 1,950 Climbing Memphis Center
Fri 02:52:33 PM 36.0408 -94.4050 88° East 441 507 26,300 1,800 Climbing Memphis Center
Fri 02:53:33 PM 36.0458 -94.2514 88° East 441 507 28,100 1,800 Climbing Memphis Center
Fri 02:54:33 PM 36.0483 -94.1025 89° East 441 507 29,900 1,700 Climbing Memphis Center
Fri 02:55:33 PM 36.0544 -93.9667 87° East 441 507 31,500 1,700 Climbing Memphis Center
Fri 02:56:33 PM 36.0586 -93.8181 88° East 436 502 33,300 1,750 Climbing Memphis Center
Fri 02:57:33 PM 36.0644 -93.6744 87° East 430 495 35,000 1,350 Climbing Memphis Center
Fri 02:58:33 PM 36.0661 -93.5308 89° East 424 488 36,000 950 Climbing Memphis Center
Fri 02:59:33 PM 36.0719 -93.3847 87° East 419 482 36,900 500 Climbing Memphis Center
Fri 03:00:33 PM 36.0775 -93.2358 87° East 425 489 37,000 50 Climbing Memphis Center
Fri 03:01:33 PM 36.0811 -93.0742 88° East 443 510 37,000  Level Memphis Center
Fri 03:02:33 PM 36.0847 -92.9100 88° East 464 534 37,000  Level Memphis Center
Fri 03:03:33 PM 36.0881 -92.7406 89° East 477 549 37,000  Level Memphis Center
Fri 03:04:33 PM 36.0911 -92.5658 89° East 489 563 37,000  Level Memphis Center
Fri 03:05:33 PM 36.0942 -92.3939 89° East 495 570 37,000  Level Memphis Center
Fri 03:06:33 PM 36.0969 -92.2064 89° East 495 570 37,000  Level Memphis Center
Fri 03:07:33 PM 36.0950 -92.0550 91° East 495 570 37,000  Level Memphis Center
Fri 03:08:33 PM 36.0972 -91.8803 89° East 495 570 37,000  Level Memphis Center
Fri 03:09:33 PM 36.0992 -91.7158 89° East 495 570 37,000  Level Memphis Center
Fri 03:10:33 PM 36.1031 -91.5489 88° East 490 564 37,000  Level Memphis Center
Fri 03:11:33 PM 36.1044 -91.3819 89° East 485 558 37,000  Level Memphis Center
Fri 03:12:33 PM 36.1014 -91.2150 91° East 479 551 37,000  Level Memphis Center
Fri 03:13:33 PM 36.1086 -91.0583 87° East 474 545 37,000  Level Memphis Center
Fri 03:14:33 PM 36.1094 -90.8992 90° East 469 540 37,000  Level Memphis Center
Fri 03:15:33 PM 36.1100 -90.7372 90° East 464 534 37,000  Level Memphis Center
Fri 03:16:33 PM 36.1167 -90.5753 87° East 464 534 37,000  Level Memphis Center
Fri 03:17:33 PM 36.1189 -90.4161 89° East 464 534 37,000  Level Memphis Center
Fri 03:18:33 PM 36.1211 -90.2492 89° East 469 540 37,000  Level Memphis Center
Fri 03:19:33 PM 36.1250 -90.0847 88° East 475 547 37,000  Level Memphis Center
Fri 03:20:33 PM 36.1286 -89.9097 88° East 487 560 37,000  Level Memphis Center
Fri 03:21:33 PM 36.1300 -89.7403 89° East 493 567 37,000  Level Memphis Center
Fri 03:22:33 PM 36.1311 -89.5628 90° East 504 580 37,000  Level Memphis Center
Fri 03:23:33 PM 36.1319 -89.3831 90° East 515 593 37,000  Level Memphis Center
Fri 03:24:33 PM 36.1344 -89.2006 89° East 520 598 37,000  Level Memphis Center
Fri 03:25:33 PM 36.1386 -88.9975 88° East 528 608 37,000  Level Memphis Center
Fri 03:26:33 PM 36.1408 -88.8225 89° East 528 608 37,000  Level Memphis Center
Fri 03:27:33 PM 36.1425 -88.6503 89° East 516 594 37,000  Level Memphis Center
Fri 03:28:33 PM 36.1442 -88.4756 89° East 510 587 37,000  Level Memphis Center
Fri 03:29:33 PM 36.1456 -88.3008 89° East 510 587 37,000  Level Memphis Center
Fri 03:30:33 PM 36.1556 -88.1567 85° East 510 587 37,000  Level Memphis Center
Fri 03:31:33 PM 36.2189 -87.9697 67° East 495 570 37,000  Level Memphis Center
Fri 03:32:33 PM 36.2764 -87.8136 65° Northeast 500 575 37,000  Level Memphis Center
Fri 03:33:33 PM 36.3375 -87.6519 65° Northeast 500 575 37,000  Level Memphis Center
Fri 03:34:33 PM 36.3986 -87.4900 65° Northeast 510 587 37,000  Level Memphis Center
Fri 03:35:33 PM 36.4572 -87.3331 65° Northeast 506 582 37,000  Level Memphis Center
Fri 03:36:33 PM 36.5200 -87.1733 64° Northeast 512 589 37,000  Level Memphis Center
Fri 03:37:33 PM 36.5725 -87.0289 66° East 512 589 37,000  Level Memphis Center
Fri 03:38:33 PM 36.6325 -86.8661 65° Northeast 512 589 37,000  Level Memphis Center
Fri 03:39:33 PM 36.6906 -86.7033 66° East 512 589 37,000  Level Memphis Center
Fri 03:40:33 PM 36.7503 -86.5400 65° Northeast 507 583 37,000  Level Memphis Center
Fri 03:41:33 PM 36.8114 -86.3636 67° East 507 583 37,000  Level Memphis Center
Fri 03:42:33 PM 36.8725 -86.1997 65° Northeast 507 583 37,000  Level Memphis Center
Fri 03:44:40 PM 36.9861 -85.8789 66° East 514 592 37,000  Level Indianapolis Center
Fri 03:45:42 PM 37.0456 -85.7128 66° East 515 593 37,000  Level Indianapolis Center
Fri 03:46:44 PM 37.1131 -85.5189 66° East 515 593 37,000  Level Indianapolis Center
Fri 03:47:46 PM 37.1661 -85.3689 66° East 514 592 37,000  Level Indianapolis Center
Fri 03:48:48 PM 37.2328 -85.1794 66° East 511 588 37,000  Level Indianapolis Center
Fri 03:49:50 PM 37.2878 -85.0150 67° East 511 588 37,000  Level Indianapolis Center
Fri 03:50:52 PM 37.3450 -84.8525 66° East 508 585 37,000  Level Indianapolis Center
Fri 03:51:54 PM 37.4008 -84.6886 67° East 509 586 37,000  Level Indianapolis Center
Fri 03:52:56 PM 37.4564 -84.5261 67° East 508 585 37,000  Level Indianapolis Center
Fri 03:53:58 PM 37.5108 -84.3653 67° East 500 575 37,000  Level Indianapolis Center
Fri 03:55:00 PM 37.5739 -84.1750 67° East 502 578 37,000  Level Indianapolis Center
Fri 03:56:02 PM 37.6303 -84.0125 66° East 503 579 37,000  Level Indianapolis Center
Fri 03:57:04 PM 37.6836 -83.8494 68° East 502 578 37,000  Level Indianapolis Center
Fri 03:58:06 PM 37.7372 -83.6844 68° East 503 579 37,000  Level Indianapolis Center
Fri 03:59:08 PM 37.7922 -83.5211 67° East 503 579 37,000  Level Indianapolis Center
Fri 04:00:10 PM 37.8461 -83.3564 67° East 505 581 37,000  Level Indianapolis Center
Fri 04:01:13 PM 37.9089 -83.1622 68° East 508 585 37,000  Level Indianapolis Center
Fri 04:02:15 PM 37.9625 -82.9997 67° East 499 574 37,000  Level Indianapolis Center
Fri 04:03:17 PM 38.0153 -82.8283 69° East 515 593 37,000 -290 Level Indianapolis Center
Fri 04:04:19 PM 38.0697 -82.6625 67° East 510 587 36,400 -629 Descending Indianapolis Center
Fri 04:05:21 PM 38.1283 -82.4764 68° East 516 594 35,700 -677 Descending Indianapolis Center
Fri 04:06:23 PM 38.1814 -82.3072 68° East 517 595 35,000 -339 Descending Indianapolis Center
Fri 04:07:25 PM 38.2339 -82.1417 68° East 509 586 35,000  Level Indianapolis Center
Fri 04:08:27 PM 38.2881 -81.9742 68° East 512 589 35,000  Level Indianapolis Center
Fri 04:09:29 PM 38.3400 -81.8014 69° East 524 603 35,000  Level Indianapolis Center
Fri 04:10:31 PM 38.3439 -81.5728 89° East 546 628 35,000  Level Indianapolis Center
Fri 04:11:33 PM 38.3381 -81.3806 92° East 550 633 35,000 -484 Level Indianapolis Center
Fri 04:12:35 PM 38.3303 -81.1883 93° East 549 632 34,000 -962 Descending Indianapolis Center
Fri 04:13:19 PM 38.3258 -81.0653 93° East 543 625 33,300 -571 Descending Washington Center
Fri 04:14:20 PM 38.3175 -80.8794 93° East 538 619 33,000 -153 Descending Washington Center
Fri 04:15:17 PM 38.3108 -80.6964 93° East 533 613 33,000  Level Washington Center
Fri 04:16:19 PM 38.3164 -80.5114 88° East 533 613 33,000 -443 Level Washington Center
Fri 04:17:19 PM 38.3597 -80.3131 74° East 518 596 32,100 -900 Descending Washington Center
Fri 04:18:19 PM 38.3942 -80.1244 77° East 523 602 31,200 -966 Descending Washington Center
Fri 04:19:17 PM 38.4300 -79.9439 76° East 528 608 30,200 -1,475 Descending Washington Center
Fri 04:20:17 PM 38.4656 -79.7656 76° East 528 608 28,300 -1,934 Descending Washington Center
Fri 04:21:18 PM 38.4986 -79.5922 76° East 518 596 26,300 -2,083 Descending Washington Center
Fri 04:22:18 PM 38.5267 -79.4372 77° East 507 583 24,100 -1,412 Descending Washington Center
Fri 04:23:17 PM 38.5500 -79.2897 79° East 464 534 23,500 -1,450 Descending Washington Center
Fri 04:24:18 PM 38.5758 -79.1239 79° East 444 511 21,200 -2,132 Descending Washington Center
Fri 04:25:18 PM 38.6031 -78.9789 76° East 425 489 19,200 -1,785 Descending Washington Center
Fri 04:26:19 PM 38.6256 -78.8417 78° East 412 474 17,600 -1,587 Descending Washington Center
Fri 04:27:19 PM 38.6539 -78.7153 74° East 389 448 16,000 -1,714 Descending Washington Center
Fri 04:28:18 PM 38.6822 -78.5861 74° East 375 432 14,200 -1,916 Descending Washington Center
Fri 04:29:18 PM 38.7122 -78.4650 72° East 370 426 12,200 -1,983 Descending Washington Center
Fri 04:30:19 PM 38.7483 -78.3547 67° East 342 394 10,200 -1,613 Descending Washington Center
Fri 04:31:17 PM 38.8042 -78.2794 46° Northeast 308 354 9,000 -610 Descending Washington Center
Fri 04:32:17 PM 38.8517 -78.2092 49° Northeast 295 339 9,000 -689 Level Washington Center
Fri 04:33:19 PM 38.8786 -78.1194 69° East 277 319 7,600 -1,082 Descending Washington Center
Fri 04:34:19 PM 38.8992 -78.0294 74° East 263 303 6,800 -814 Descending Washington Center
Fri 04:35:17 PM 38.9219 -77.9369 72° East 263 303 6,000 -407 Descending Washington Center
Fri 04:36:17 PM 38.9467 -77.8389 72° East 263 303 6,000  Level Washington Center
Fri 04:37:18 PM 38.9628 -77.7461 77° East 263 303 6,000  Level Washington Center
Fri 04:38:18 PM 38.9522 -77.6497 98° East 257 296 6,000  Level Washington Center
Fri 04:39:09 PM 38.9000 -77.6000 143° Southeast 227 261 6,000 -429 Level Potomac TRACON
Fri 04:40:10 PM 38.8500 -77.5667 153° Southeast 236 272 5,200 -850 Descending Potomac TRACON
Fri 04:41:16 PM 38.8000 -77.5333 153° Southeast 236 272 4,200 -1,143 Descending Potomac TRACON
Fri 04:42:16 PM 38.8167 -77.4667 72° East 223 257 2,800 -1,263 Descending Potomac TRACON
Fri 04:43:10 PM 38.8667 -77.4667 360° North 162 186 1,800 -895 Descending Potomac TRACON
Fri 04:44:10 PM 38.9000 -77.4667 360° North 137 158 1,100 -700 Descending Potomac TRACON
Fri 04:46:00 PM 38.9333 -77.4500 165° South  Level FlightAware Approximate
Fri 04:53:00 PM 38.9474 -77.4599 165° South  Level Estimated
Fri 04:54:00 PM 38.9474 -77.4599 165° South  Level Estimated

Login

Don't have an account? Register now (free) for customized features, flight alerts, and more!